sensor_id;sensor_type;location;lat;lon;timestamp;P1;durP1;ratioP1;P2;durP2;ratioP2
36799;SDS011;22752;51.960;5.886;2023-06-22T00:00:29;3.47;;;2.70;;
36799;SDS011;22752;51.960;5.886;2023-06-22T00:02:55;4.20;;;2.88;;
36799;SDS011;22752;51.960;5.886;2023-06-22T00:05:20;7.00;;;2.75;;
36799;SDS011;22752;51.960;5.886;2023-06-22T00:07:46;4.88;;;3.22;;
36799;SDS011;22752;51.960;5.886;2023-06-22T00:10:12;2.83;;;2.15;;
36799;SDS011;22752;51.960;5.886;2023-06-22T00:12:37;4.68;;;2.95;;
36799;SDS011;22752;51.960;5.886;2023-06-22T00:15:03;3.78;;;2.50;;
36799;SDS011;22752;51.960;5.886;2023-06-22T00:17:29;4.05;;;2.40;;
36799;SDS011;22752;51.960;5.886;2023-06-22T00:19:55;6.28;;;3.00;;
36799;SDS011;22752;51.960;5.886;2023-06-22T00:22:23;5.57;;;3.30;;
36799;SDS011;22752;51.960;5.886;2023-06-22T00:24:54;2.67;;;2.40;;
36799;SDS011;22752;51.960;5.886;2023-06-22T00:27:20;4.80;;;3.00;;
36799;SDS011;22752;51.960;5.886;2023-06-22T00:29:46;3.83;;;2.90;;
36799;SDS011;22752;51.960;5.886;2023-06-22T00:32:11;4.45;;;2.70;;
36799;SDS011;22752;51.960;5.886;2023-06-22T00:34:37;4.72;;;3.03;;
36799;SDS011;22752;51.960;5.886;2023-06-22T00:37:03;4.15;;;3.05;;
36799;SDS011;22752;51.960;5.886;2023-06-22T00:39:29;4.10;;;3.10;;
36799;SDS011;22752;51.960;5.886;2023-06-22T00:41:54;5.47;;;2.97;;
36799;SDS011;22752;51.960;5.886;2023-06-22T00:44:20;4.10;;;2.80;;
36799;SDS011;22752;51.960;5.886;2023-06-22T00:46:45;5.63;;;3.38;;
36799;SDS011;22752;51.960;5.886;2023-06-22T00:49:11;3.65;;;2.92;;
36799;SDS011;22752;51.960;5.886;2023-06-22T00:51:37;4.60;;;3.13;;
36799;SDS011;22752;51.960;5.886;2023-06-22T00:54:04;5.10;;;3.90;;
36799;SDS011;22752;51.960;5.886;2023-06-22T00:56:30;8.48;;;4.53;;
36799;SDS011;22752;51.960;5.886;2023-06-22T00:58:57;6.07;;;3.75;;
36799;SDS011;22752;51.960;5.886;2023-06-22T01:01:25;4.82;;;3.00;;
36799;SDS011;22752;51.960;5.886;2023-06-22T01:03:51;4.13;;;3.53;;
36799;SDS011;22752;51.960;5.886;2023-06-22T01:06:18;4.70;;;3.65;;
36799;SDS011;22752;51.960;5.886;2023-06-22T01:08:53;9.25;;;4.32;;
36799;SDS011;22752;51.960;5.886;2023-06-22T01:11:45;5.18;;;4.00;;
36799;SDS011;22752;51.960;5.886;2023-06-22T01:14:23;5.53;;;4.22;;
36799;SDS011;22752;51.960;5.886;2023-06-22T01:22:17;5.35;;;3.90;;
36799;SDS011;22752;51.960;5.886;2023-06-22T01:24:57;4.85;;;4.10;;
36799;SDS011;22752;51.960;5.886;2023-06-22T01:27:53;5.43;;;3.55;;
36799;SDS011;22752;51.960;5.886;2023-06-22T01:30:26;6.75;;;3.95;;
36799;SDS011;22752;51.960;5.886;2023-06-22T01:32:54;6.32;;;3.65;;
36799;SDS011;22752;51.960;5.886;2023-06-22T01:35:23;5.00;;;3.90;;
36799;SDS011;22752;51.960;5.886;2023-06-22T01:37:50;5.00;;;3.63;;
36799;SDS011;22752;51.960;5.886;2023-06-22T01:40:16;4.40;;;3.30;;
36799;SDS011;22752;51.960;5.886;2023-06-22T01:42:43;5.25;;;3.67;;
36799;SDS011;22752;51.960;5.886;2023-06-22T01:45:10;4.50;;;3.10;;
36799;SDS011;22752;51.960;5.886;2023-06-22T01:47:37;4.93;;;3.40;;
36799;SDS011;22752;51.960;5.886;2023-06-22T01:50:04;3.85;;;3.13;;
36799;SDS011;22752;51.960;5.886;2023-06-22T01:52:30;6.65;;;3.40;;
36799;SDS011;22752;51.960;5.886;2023-06-22T01:54:58;7.07;;;3.40;;
36799;SDS011;22752;51.960;5.886;2023-06-22T01:57:25;5.97;;;3.40;;
36799;SDS011;22752;51.960;5.886;2023-06-22T02:02:32;4.95;;;3.60;;
36799;SDS011;22752;51.960;5.886;2023-06-22T02:05:05;6.18;;;3.38;;
36799;SDS011;22752;51.960;5.886;2023-06-22T02:07:37;5.05;;;3.33;;
36799;SDS011;22752;51.960;5.886;2023-06-22T02:10:07;3.47;;;3.03;;
36799;SDS011;22752;51.960;5.886;2023-06-22T02:12:37;3.53;;;3.22;;
36799;SDS011;22752;51.960;5.886;2023-06-22T02:15:04;4.22;;;3.30;;
36799;SDS011;22752;51.960;5.886;2023-06-22T02:17:30;4.60;;;3.10;;
36799;SDS011;22752;51.960;5.886;2023-06-22T02:19:58;4.25;;;3.10;;
36799;SDS011;22752;51.960;5.886;2023-06-22T02:22:24;3.60;;;2.92;;
36799;SDS011;22752;51.960;5.886;2023-06-22T02:24:49;5.82;;;3.30;;
36799;SDS011;22752;51.960;5.886;2023-06-22T02:27:15;3.42;;;3.10;;
36799;SDS011;22752;51.960;5.886;2023-06-22T02:29:41;6.70;;;4.78;;
36799;SDS011;22752;51.960;5.886;2023-06-22T02:32:06;5.30;;;3.65;;
36799;SDS011;22752;51.960;5.886;2023-06-22T02:34:32;6.38;;;4.30;;
36799;SDS011;22752;51.960;5.886;2023-06-22T02:36:59;8.50;;;4.15;;
36799;SDS011;22752;51.960;5.886;2023-06-22T02:39:26;5.70;;;4.57;;
36799;SDS011;22752;51.960;5.886;2023-06-22T02:41:52;5.65;;;3.92;;
36799;SDS011;22752;51.960;5.886;2023-06-22T02:44:19;4.57;;;3.70;;
36799;SDS011;22752;51.960;5.886;2023-06-22T02:46:46;4.55;;;3.60;;
36799;SDS011;22752;51.960;5.886;2023-06-22T02:49:12;5.95;;;4.07;;
36799;SDS011;22752;51.960;5.886;2023-06-22T02:51:39;4.57;;;4.18;;
36799;SDS011;22752;51.960;5.886;2023-06-22T02:54:11;6.50;;;4.43;;
36799;SDS011;22752;51.960;5.886;2023-06-22T02:56:37;4.90;;;4.00;;
36799;SDS011;22752;51.960;5.886;2023-06-22T02:59:03;5.30;;;3.80;;
36799;SDS011;22752;51.960;5.886;2023-06-22T03:01:29;6.50;;;4.60;;
36799;SDS011;22752;51.960;5.886;2023-06-22T03:04:04;6.25;;;4.53;;
36799;SDS011;22752;51.960;5.886;2023-06-22T03:06:33;5.30;;;4.80;;
36799;SDS011;22752;51.960;5.886;2023-06-22T03:09:00;8.52;;;5.45;;
36799;SDS011;22752;51.960;5.886;2023-06-22T03:11:29;7.13;;;5.40;;
36799;SDS011;22752;51.960;5.886;2023-06-22T03:13:55;5.75;;;4.65;;
36799;SDS011;22752;51.960;5.886;2023-06-22T03:16:21;6.15;;;4.63;;
36799;SDS011;22752;51.960;5.886;2023-06-22T03:18:47;5.45;;;4.28;;
36799;SDS011;22752;51.960;5.886;2023-06-22T03:21:13;6.00;;;4.05;;
36799;SDS011;22752;51.960;5.886;2023-06-22T03:23:40;6.70;;;4.97;;
36799;SDS011;22752;51.960;5.886;2023-06-22T03:26:06;6.53;;;4.63;;
36799;SDS011;22752;51.960;5.886;2023-06-22T03:28:33;5.60;;;4.32;;
36799;SDS011;22752;51.960;5.886;2023-06-22T03:30:59;7.50;;;4.95;;
36799;SDS011;22752;51.960;5.886;2023-06-22T03:33:24;9.32;;;5.90;;
36799;SDS011;22752;51.960;5.886;2023-06-22T03:35:50;6.82;;;5.28;;
36799;SDS011;22752;51.960;5.886;2023-06-22T03:38:16;7.35;;;5.30;;
36799;SDS011;22752;51.960;5.886;2023-06-22T03:40:42;10.88;;;6.65;;
36799;SDS011;22752;51.960;5.886;2023-06-22T03:43:08;9.40;;;7.25;;
36799;SDS011;22752;51.960;5.886;2023-06-22T03:45:33;9.90;;;7.70;;
36799;SDS011;22752;51.960;5.886;2023-06-22T03:48:00;8.75;;;7.05;;
36799;SDS011;22752;51.960;5.886;2023-06-22T03:50:26;7.90;;;7.00;;
36799;SDS011;22752;51.960;5.886;2023-06-22T03:52:52;12.82;;;8.85;;
36799;SDS011;22752;51.960;5.886;2023-06-22T03:55:19;10.23;;;8.95;;
36799;SDS011;22752;51.960;5.886;2023-06-22T03:57:45;9.38;;;7.63;;
36799;SDS011;22752;51.960;5.886;2023-06-22T04:00:11;17.25;;;12.60;;
36799;SDS011;22752;51.960;5.886;2023-06-22T04:02:37;16.15;;;11.95;;
36799;SDS011;22752;51.960;5.886;2023-06-22T04:05:03;15.13;;;11.50;;
36799;SDS011;22752;51.960;5.886;2023-06-22T04:07:29;13.85;;;10.32;;
36799;SDS011;22752;51.960;5.886;2023-06-22T04:09:55;14.38;;;11.55;;
36799;SDS011;22752;51.960;5.886;2023-06-22T04:12:20;15.98;;;13.57;;
36799;SDS011;22752;51.960;5.886;2023-06-22T04:14:46;15.90;;;14.20;;
36799;SDS011;22752;51.960;5.886;2023-06-22T04:17:11;18.52;;;13.80;;
36799;SDS011;22752;51.960;5.886;2023-06-22T04:19:39;20.77;;;15.63;;
36799;SDS011;22752;51.960;5.886;2023-06-22T04:22:05;19.27;;;13.73;;
36799;SDS011;22752;51.960;5.886;2023-06-22T04:24:32;18.20;;;13.02;;
36799;SDS011;22752;51.960;5.886;2023-06-22T04:26:58;23.15;;;17.63;;
36799;SDS011;22752;51.960;5.886;2023-06-22T04:29:27;19.30;;;15.50;;
36799;SDS011;22752;51.960;5.886;2023-06-22T04:31:57;20.98;;;16.65;;
36799;SDS011;22752;51.960;5.886;2023-06-22T04:34:23;15.77;;;13.95;;
36799;SDS011;22752;51.960;5.886;2023-06-22T04:36:52;20.77;;;15.77;;
36799;SDS011;22752;51.960;5.886;2023-06-22T04:39:18;20.95;;;16.38;;
36799;SDS011;22752;51.960;5.886;2023-06-22T04:41:44;20.73;;;16.02;;
36799;SDS011;22752;51.960;5.886;2023-06-22T04:46:49;19.60;;;15.13;;
36799;SDS011;22752;51.960;5.886;2023-06-22T04:49:19;16.42;;;13.35;;
36799;SDS011;22752;51.960;5.886;2023-06-22T04:51:46;12.55;;;10.45;;
36799;SDS011;22752;51.960;5.886;2023-06-22T04:54:13;18.85;;;15.48;;
36799;SDS011;22752;51.960;5.886;2023-06-22T04:56:38;16.75;;;14.95;;
36799;SDS011;22752;51.960;5.886;2023-06-22T04:59:05;18.73;;;15.10;;
36799;SDS011;22752;51.960;5.886;2023-06-22T05:01:31;20.38;;;15.93;;
36799;SDS011;22752;51.960;5.886;2023-06-22T05:03:57;17.85;;;13.82;;
36799;SDS011;22752;51.960;5.886;2023-06-22T05:06:25;18.63;;;15.93;;
36799;SDS011;22752;51.960;5.886;2023-06-22T05:08:55;19.13;;;15.80;;
36799;SDS011;22752;51.960;5.886;2023-06-22T05:11:25;22.15;;;16.83;;
36799;SDS011;22752;51.960;5.886;2023-06-22T05:13:51;21.70;;;15.20;;
36799;SDS011;22752;51.960;5.886;2023-06-22T05:16:17;20.20;;;15.10;;
36799;SDS011;22752;51.960;5.886;2023-06-22T05:18:48;17.10;;;14.48;;
36799;SDS011;22752;51.960;5.886;2023-06-22T05:21:13;17.02;;;14.65;;
36799;SDS011;22752;51.960;5.886;2023-06-22T05:23:39;17.60;;;14.65;;
36799;SDS011;22752;51.960;5.886;2023-06-22T05:26:04;17.05;;;13.68;;
36799;SDS011;22752;51.960;5.886;2023-06-22T05:28:30;18.90;;;15.68;;
36799;SDS011;22752;51.960;5.886;2023-06-22T05:30:56;15.18;;;13.15;;
36799;SDS011;22752;51.960;5.886;2023-06-22T05:33:21;17.23;;;14.43;;
36799;SDS011;22752;51.960;5.886;2023-06-22T05:35:47;16.85;;;13.57;;
36799;SDS011;22752;51.960;5.886;2023-06-22T05:38:13;18.98;;;14.07;;
36799;SDS011;22752;51.960;5.886;2023-06-22T05:40:39;16.38;;;13.20;;
36799;SDS011;22752;51.960;5.886;2023-06-22T05:43:04;13.50;;;10.45;;
36799;SDS011;22752;51.960;5.886;2023-06-22T05:45:30;16.75;;;11.95;;
36799;SDS011;22752;51.960;5.886;2023-06-22T05:47:55;16.60;;;11.77;;
36799;SDS011;22752;51.960;5.886;2023-06-22T05:50:21;14.20;;;10.52;;
36799;SDS011;22752;51.960;5.886;2023-06-22T05:52:47;12.43;;;9.27;;
36799;SDS011;22752;51.960;5.886;2023-06-22T05:55:12;11.48;;;10.18;;
36799;SDS011;22752;51.960;5.886;2023-06-22T05:57:38;13.73;;;10.90;;
36799;SDS011;22752;51.960;5.886;2023-06-22T06:00:04;13.88;;;11.80;;
36799;SDS011;22752;51.960;5.886;2023-06-22T06:02:35;14.25;;;10.57;;
36799;SDS011;22752;51.960;5.886;2023-06-22T06:05:01;11.88;;;10.32;;
36799;SDS011;22752;51.960;5.886;2023-06-22T06:07:27;17.15;;;12.52;;
36799;SDS011;22752;51.960;5.886;2023-06-22T06:09:53;12.52;;;10.45;;
36799;SDS011;22752;51.960;5.886;2023-06-22T06:12:18;13.32;;;11.35;;
36799;SDS011;22752;51.960;5.886;2023-06-22T06:14:44;12.23;;;10.90;;
36799;SDS011;22752;51.960;5.886;2023-06-22T06:17:10;19.92;;;12.30;;
36799;SDS011;22752;51.960;5.886;2023-06-22T06:19:35;9.88;;;8.82;;
36799;SDS011;22752;51.960;5.886;2023-06-22T06:22:01;12.15;;;8.40;;
36799;SDS011;22752;51.960;5.886;2023-06-22T06:24:27;12.32;;;10.52;;
36799;SDS011;22752;51.960;5.886;2023-06-22T06:26:52;12.45;;;9.85;;
36799;SDS011;22752;51.960;5.886;2023-06-22T06:29:18;13.30;;;10.20;;
36799;SDS011;22752;51.960;5.886;2023-06-22T06:31:44;12.73;;;10.00;;
36799;SDS011;22752;51.960;5.886;2023-06-22T06:34:09;15.18;;;9.25;;
36799;SDS011;22752;51.960;5.886;2023-06-22T06:36:35;11.18;;;9.13;;
36799;SDS011;22752;51.960;5.886;2023-06-22T06:39:01;14.30;;;9.48;;
36799;SDS011;22752;51.960;5.886;2023-06-22T06:41:28;10.40;;;9.38;;
36799;SDS011;22752;51.960;5.886;2023-06-22T06:43:53;12.13;;;9.20;;
36799;SDS011;22752;51.960;5.886;2023-06-22T06:46:19;11.63;;;10.27;;
36799;SDS011;22752;51.960;5.886;2023-06-22T06:48:45;14.32;;;11.13;;
36799;SDS011;22752;51.960;5.886;2023-06-22T06:51:10;13.18;;;10.43;;
36799;SDS011;22752;51.960;5.886;2023-06-22T06:53:37;11.50;;;10.30;;
36799;SDS011;22752;51.960;5.886;2023-06-22T06:56:03;13.43;;;11.48;;
36799;SDS011;22752;51.960;5.886;2023-06-22T06:58:30;10.68;;;9.38;;
36799;SDS011;22752;51.960;5.886;2023-06-22T07:00:56;12.70;;;10.18;;
36799;SDS011;22752;51.960;5.886;2023-06-22T07:03:21;11.40;;;9.27;;
36799;SDS011;22752;51.960;5.886;2023-06-22T07:05:47;9.95;;;8.95;;
36799;SDS011;22752;51.960;5.886;2023-06-22T07:08:13;8.18;;;7.25;;
36799;SDS011;22752;51.960;5.886;2023-06-22T07:10:38;8.50;;;7.28;;
36799;SDS011;22752;51.960;5.886;2023-06-22T07:13:04;9.70;;;8.50;;
36799;SDS011;22752;51.960;5.886;2023-06-22T07:15:30;15.68;;;9.23;;
36799;SDS011;22752;51.960;5.886;2023-06-22T07:17:55;15.43;;;10.48;;
36799;SDS011;22752;51.960;5.886;2023-06-22T07:20:21;10.00;;;8.75;;
36799;SDS011;22752;51.960;5.886;2023-06-22T07:22:47;11.63;;;8.18;;
36799;SDS011;22752;51.960;5.886;2023-06-22T07:25:12;11.05;;;8.10;;
36799;SDS011;22752;51.960;5.886;2023-06-22T07:27:58;8.68;;;7.78;;
36799;SDS011;22752;51.960;5.886;2023-06-22T07:30:26;11.30;;;9.15;;
36799;SDS011;22752;51.960;5.886;2023-06-22T07:32:52;11.23;;;9.65;;
36799;SDS011;22752;51.960;5.886;2023-06-22T07:35:18;10.25;;;7.75;;
36799;SDS011;22752;51.960;5.886;2023-06-22T07:37:44;9.48;;;7.05;;
36799;SDS011;22752;51.960;5.886;2023-06-22T07:40:09;13.32;;;8.18;;
36799;SDS011;22752;51.960;5.886;2023-06-22T07:42:35;12.23;;;8.68;;
36799;SDS011;22752;51.960;5.886;2023-06-22T07:45:02;11.48;;;8.10;;
36799;SDS011;22752;51.960;5.886;2023-06-22T07:47:28;12.60;;;8.77;;
36799;SDS011;22752;51.960;5.886;2023-06-22T07:49:55;12.27;;;8.32;;
36799;SDS011;22752;51.960;5.886;2023-06-22T07:52:26;11.60;;;8.70;;
36799;SDS011;22752;51.960;5.886;2023-06-22T07:54:55;8.98;;;7.68;;
36799;SDS011;22752;51.960;5.886;2023-06-22T07:57:20;10.65;;;7.65;;
36799;SDS011;22752;51.960;5.886;2023-06-22T07:59:46;8.50;;;7.43;;
36799;SDS011;22752;51.960;5.886;2023-06-22T08:02:12;8.68;;;6.82;;
36799;SDS011;22752;51.960;5.886;2023-06-22T08:04:38;10.23;;;7.78;;
36799;SDS011;22752;51.960;5.886;2023-06-22T08:07:04;8.38;;;6.63;;
36799;SDS011;22752;51.960;5.886;2023-06-22T08:09:31;7.75;;;6.65;;
36799;SDS011;22752;51.960;5.886;2023-06-22T08:11:57;8.82;;;7.35;;
36799;SDS011;22752;51.960;5.886;2023-06-22T08:14:25;11.18;;;7.75;;
36799;SDS011;22752;51.960;5.886;2023-06-22T08:16:51;9.25;;;6.72;;
36799;SDS011;22752;51.960;5.886;2023-06-22T08:19:17;8.55;;;6.95;;
36799;SDS011;22752;51.960;5.886;2023-06-22T08:21:43;10.10;;;7.60;;
36799;SDS011;22752;51.960;5.886;2023-06-22T08:24:08;9.35;;;8.13;;
36799;SDS011;22752;51.960;5.886;2023-06-22T08:26:34;10.85;;;7.60;;
36799;SDS011;22752;51.960;5.886;2023-06-22T08:29:02;10.75;;;7.22;;
36799;SDS011;22752;51.960;5.886;2023-06-22T08:31:28;8.98;;;7.00;;
36799;SDS011;22752;51.960;5.886;2023-06-22T08:33:55;8.45;;;7.00;;
36799;SDS011;22752;51.960;5.886;2023-06-22T08:36:21;11.35;;;6.78;;
36799;SDS011;22752;51.960;5.886;2023-06-22T08:38:46;9.48;;;7.15;;
36799;SDS011;22752;51.960;5.886;2023-06-22T08:41:16;8.88;;;5.78;;
36799;SDS011;22752;51.960;5.886;2023-06-22T08:43:42;7.05;;;5.95;;
36799;SDS011;22752;51.960;5.886;2023-06-22T08:46:09;7.82;;;5.70;;
36799;SDS011;22752;51.960;5.886;2023-06-22T08:48:35;8.05;;;6.15;;
36799;SDS011;22752;51.960;5.886;2023-06-22T08:51:01;8.23;;;6.47;;
36799;SDS011;22752;51.960;5.886;2023-06-22T08:53:28;6.53;;;5.60;;
36799;SDS011;22752;51.960;5.886;2023-06-22T08:55:54;8.00;;;5.60;;
36799;SDS011;22752;51.960;5.886;2023-06-22T08:58:19;8.60;;;5.55;;
36799;SDS011;22752;51.960;5.886;2023-06-22T09:00:46;9.70;;;6.25;;
36799;SDS011;22752;51.960;5.886;2023-06-22T09:03:12;5.82;;;4.90;;
36799;SDS011;22752;51.960;5.886;2023-06-22T09:05:38;12.35;;;4.50;;
36799;SDS011;22752;51.960;5.886;2023-06-22T09:08:04;6.93;;;5.68;;
36799;SDS011;22752;51.960;5.886;2023-06-22T09:10:30;9.38;;;6.30;;
36799;SDS011;22752;51.960;5.886;2023-06-22T09:12:56;9.77;;;5.63;;
36799;SDS011;22752;51.960;5.886;2023-06-22T09:15:22;9.20;;;5.40;;
36799;SDS011;22752;51.960;5.886;2023-06-22T09:17:48;8.48;;;5.68;;
36799;SDS011;22752;51.960;5.886;2023-06-22T09:20:14;9.23;;;5.95;;
36799;SDS011;22752;51.960;5.886;2023-06-22T09:22:40;7.93;;;5.72;;
36799;SDS011;22752;51.960;5.886;2023-06-22T09:25:06;8.20;;;5.45;;
36799;SDS011;22752;51.960;5.886;2023-06-22T09:27:32;7.57;;;5.95;;
36799;SDS011;22752;51.960;5.886;2023-06-22T09:29:58;6.68;;;5.65;;
36799;SDS011;22752;51.960;5.886;2023-06-22T09:32:24;6.90;;;4.90;;
36799;SDS011;22752;51.960;5.886;2023-06-22T09:34:51;6.05;;;5.03;;
36799;SDS011;22752;51.960;5.886;2023-06-22T09:37:16;6.93;;;4.93;;
36799;SDS011;22752;51.960;5.886;2023-06-22T09:39:42;6.50;;;4.78;;
36799;SDS011;22752;51.960;5.886;2023-06-22T09:42:08;4.85;;;4.10;;
36799;SDS011;22752;51.960;5.886;2023-06-22T09:44:33;7.30;;;5.22;;
36799;SDS011;22752;51.960;5.886;2023-06-22T09:46:59;6.25;;;4.95;;
36799;SDS011;22752;51.960;5.886;2023-06-22T09:49:25;7.90;;;5.18;;
36799;SDS011;22752;51.960;5.886;2023-06-22T09:51:51;5.95;;;4.55;;
36799;SDS011;22752;51.960;5.886;2023-06-22T09:54:17;7.00;;;5.22;;
36799;SDS011;22752;51.960;5.886;2023-06-22T09:56:43;4.28;;;3.88;;
36799;SDS011;22752;51.960;5.886;2023-06-22T09:59:08;7.95;;;5.55;;
36799;SDS011;22752;51.960;5.886;2023-06-22T10:01:34;5.75;;;5.00;;
36799;SDS011;22752;51.960;5.886;2023-06-22T10:04:00;6.55;;;4.43;;
36799;SDS011;22752;51.960;5.886;2023-06-22T10:06:26;5.13;;;4.25;;
36799;SDS011;22752;51.960;5.886;2023-06-22T10:08:52;9.63;;;5.50;;
36799;SDS011;22752;51.960;5.886;2023-06-22T10:11:18;6.00;;;4.70;;
36799;SDS011;22752;51.960;5.886;2023-06-22T10:13:43;7.20;;;5.25;;
36799;SDS011;22752;51.960;5.886;2023-06-22T10:16:09;7.35;;;5.38;;
36799;SDS011;22752;51.960;5.886;2023-06-22T10:18:34;7.07;;;4.70;;
36799;SDS011;22752;51.960;5.886;2023-06-22T10:21:00;5.43;;;4.30;;
36799;SDS011;22752;51.960;5.886;2023-06-22T10:23:26;5.15;;;4.25;;
36799;SDS011;22752;51.960;5.886;2023-06-22T10:25:52;7.03;;;4.32;;
36799;SDS011;22752;51.960;5.886;2023-06-22T10:28:17;5.97;;;5.03;;
36799;SDS011;22752;51.960;5.886;2023-06-22T10:30:43;8.40;;;5.20;;
36799;SDS011;22752;51.960;5.886;2023-06-22T10:33:09;7.43;;;5.60;;
36799;SDS011;22752;51.960;5.886;2023-06-22T10:35:35;7.05;;;5.22;;
36799;SDS011;22752;51.960;5.886;2023-06-22T10:38:02;6.20;;;4.70;;
36799;SDS011;22752;51.960;5.886;2023-06-22T10:40:28;4.82;;;4.35;;
36799;SDS011;22752;51.960;5.886;2023-06-22T10:42:54;9.48;;;5.20;;
36799;SDS011;22752;51.960;5.886;2023-06-22T10:45:20;6.88;;;4.80;;
36799;SDS011;22752;51.960;5.886;2023-06-22T10:47:46;7.72;;;5.53;;
36799;SDS011;22752;51.960;5.886;2023-06-22T10:50:11;8.18;;;5.43;;
36799;SDS011;22752;51.960;5.886;2023-06-22T10:52:38;6.00;;;5.20;;
36799;SDS011;22752;51.960;5.886;2023-06-22T10:55:04;5.65;;;5.03;;
36799;SDS011;22752;51.960;5.886;2023-06-22T10:57:30;6.07;;;4.60;;
36799;SDS011;22752;51.960;5.886;2023-06-22T10:59:55;7.03;;;5.03;;
36799;SDS011;22752;51.960;5.886;2023-06-22T11:02:21;5.50;;;4.88;;
36799;SDS011;22752;51.960;5.886;2023-06-22T11:04:47;5.95;;;4.68;;
36799;SDS011;22752;51.960;5.886;2023-06-22T11:07:13;7.20;;;6.28;;
36799;SDS011;22752;51.960;5.886;2023-06-22T11:09:38;7.13;;;6.15;;
36799;SDS011;22752;51.960;5.886;2023-06-22T11:12:04;11.43;;;6.22;;
36799;SDS011;22752;51.960;5.886;2023-06-22T11:14:31;7.00;;;5.38;;
36799;SDS011;22752;51.960;5.886;2023-06-22T11:16:58;7.63;;;5.47;;
36799;SDS011;22752;51.960;5.886;2023-06-22T11:19:24;4.65;;;4.20;;
36799;SDS011;22752;51.960;5.886;2023-06-22T11:21:49;6.60;;;5.28;;
36799;SDS011;22752;51.960;5.886;2023-06-22T11:24:16;7.57;;;5.30;;
36799;SDS011;22752;51.960;5.886;2023-06-22T11:26:42;6.85;;;4.75;;
36799;SDS011;22752;51.960;5.886;2023-06-22T11:29:07;8.43;;;6.20;;
36799;SDS011;22752;51.960;5.886;2023-06-22T11:31:34;10.85;;;6.53;;
36799;SDS011;22752;51.960;5.886;2023-06-22T11:34:00;8.60;;;7.28;;
36799;SDS011;22752;51.960;5.886;2023-06-22T11:36:25;8.52;;;6.47;;
36799;SDS011;22752;51.960;5.886;2023-06-22T11:38:51;9.05;;;7.03;;
36799;SDS011;22752;51.960;5.886;2023-06-22T11:41:17;7.90;;;5.70;;
36799;SDS011;22752;51.960;5.886;2023-06-22T11:43:42;6.53;;;5.72;;
36799;SDS011;22752;51.960;5.886;2023-06-22T11:46:09;8.70;;;6.00;;
36799;SDS011;22752;51.960;5.886;2023-06-22T11:48:35;10.43;;;6.63;;
36799;SDS011;22752;51.960;5.886;2023-06-22T11:51:01;7.60;;;6.22;;
36799;SDS011;22752;51.960;5.886;2023-06-22T11:53:28;8.23;;;6.22;;
36799;SDS011;22752;51.960;5.886;2023-06-22T11:55:53;9.50;;;6.60;;
36799;SDS011;22752;51.960;5.886;2023-06-22T11:58:20;7.53;;;6.35;;
36799;SDS011;22752;51.960;5.886;2023-06-22T12:00:45;10.13;;;7.30;;
36799;SDS011;22752;51.960;5.886;2023-06-22T12:03:11;8.13;;;7.32;;
36799;SDS011;22752;51.960;5.886;2023-06-22T12:05:37;10.45;;;8.18;;
36799;SDS011;22752;51.960;5.886;2023-06-22T12:08:03;9.95;;;7.93;;
36799;SDS011;22752;51.960;5.886;2023-06-22T12:10:29;12.10;;;8.95;;
36799;SDS011;22752;51.960;5.886;2023-06-22T12:12:55;12.73;;;8.93;;
36799;SDS011;22752;51.960;5.886;2023-06-22T12:15:22;12.60;;;9.43;;
36799;SDS011;22752;51.960;5.886;2023-06-22T12:17:48;13.98;;;10.85;;
36799;SDS011;22752;51.960;5.886;2023-06-22T12:20:14;14.02;;;10.77;;
36799;SDS011;22752;51.960;5.886;2023-06-22T12:22:40;12.13;;;10.45;;
36799;SDS011;22752;51.960;5.886;2023-06-22T12:25:06;13.32;;;11.27;;
36799;SDS011;22752;51.960;5.886;2023-06-22T12:27:33;13.55;;;11.30;;
36799;SDS011;22752;51.960;5.886;2023-06-22T12:29:59;14.32;;;11.15;;
36799;SDS011;22752;51.960;5.886;2023-06-22T12:32:24;16.40;;;12.00;;
36799;SDS011;22752;51.960;5.886;2023-06-22T12:34:51;16.23;;;12.48;;
36799;SDS011;22752;51.960;5.886;2023-06-22T12:37:17;17.65;;;13.18;;
36799;SDS011;22752;51.960;5.886;2023-06-22T12:39:43;13.38;;;11.30;;
36799;SDS011;22752;51.960;5.886;2023-06-22T12:42:09;17.80;;;13.65;;
36799;SDS011;22752;51.960;5.886;2023-06-22T12:44:37;17.20;;;12.05;;
36799;SDS011;22752;51.960;5.886;2023-06-22T12:47:03;16.52;;;14.15;;
36799;SDS011;22752;51.960;5.886;2023-06-22T12:49:29;16.35;;;13.65;;
36799;SDS011;22752;51.960;5.886;2023-06-22T12:51:55;20.88;;;15.25;;
36799;SDS011;22752;51.960;5.886;2023-06-22T12:54:20;16.92;;;14.80;;
36799;SDS011;22752;51.960;5.886;2023-06-22T12:56:46;17.45;;;13.73;;
36799;SDS011;22752;51.960;5.886;2023-06-22T12:59:12;15.73;;;14.15;;
36799;SDS011;22752;51.960;5.886;2023-06-22T13:01:37;19.08;;;16.95;;
36799;SDS011;22752;51.960;5.886;2023-06-22T13:04:03;17.73;;;14.27;;
36799;SDS011;22752;51.960;5.886;2023-06-22T13:06:29;19.02;;;14.73;;
36799;SDS011;22752;51.960;5.886;2023-06-22T13:08:54;18.92;;;14.55;;
36799;SDS011;22752;51.960;5.886;2023-06-22T13:11:20;16.23;;;14.50;;
36799;SDS011;22752;51.960;5.886;2023-06-22T13:13:46;19.08;;;14.68;;
36799;SDS011;22752;51.960;5.886;2023-06-22T13:16:12;17.58;;;15.20;;
36799;SDS011;22752;51.960;5.886;2023-06-22T13:18:38;17.10;;;15.38;;
36799;SDS011;22752;51.960;5.886;2023-06-22T13:21:04;16.58;;;14.35;;
36799;SDS011;22752;51.960;5.886;2023-06-22T13:23:30;16.77;;;14.95;;
36799;SDS011;22752;51.960;5.886;2023-06-22T13:25:56;16.08;;;14.13;;
36799;SDS011;22752;51.960;5.886;2023-06-22T13:28:22;17.00;;;15.20;;
36799;SDS011;22752;51.960;5.886;2023-06-22T13:30:48;20.85;;;18.08;;
36799;SDS011;22752;51.960;5.886;2023-06-22T13:33:14;23.05;;;20.60;;
36799;SDS011;22752;51.960;5.886;2023-06-22T13:35:40;20.85;;;18.65;;
36799;SDS011;22752;51.960;5.886;2023-06-22T13:38:07;21.95;;;19.65;;
36799;SDS011;22752;51.960;5.886;2023-06-22T13:40:36;24.15;;;21.35;;
36799;SDS011;22752;51.960;5.886;2023-06-22T13:43:05;28.65;;;23.40;;
36799;SDS011;22752;51.960;5.886;2023-06-22T13:45:31;24.70;;;21.08;;
36799;SDS011;22752;51.960;5.886;2023-06-22T13:47:57;27.38;;;24.40;;
36799;SDS011;22752;51.960;5.886;2023-06-22T13:50:23;27.35;;;20.58;;
36799;SDS011;22752;51.960;5.886;2023-06-22T13:52:49;25.20;;;22.52;;
36799;SDS011;22752;51.960;5.886;2023-06-22T13:55:15;30.73;;;26.55;;
36799;SDS011;22752;51.960;5.886;2023-06-22T13:57:40;27.00;;;23.92;;
36799;SDS011;22752;51.960;5.886;2023-06-22T14:00:07;25.10;;;21.27;;
36799;SDS011;22752;51.960;5.886;2023-06-22T14:02:33;28.60;;;24.42;;
36799;SDS011;22752;51.960;5.886;2023-06-22T14:04:59;25.70;;;22.05;;
36799;SDS011;22752;51.960;5.886;2023-06-22T14:07:25;24.20;;;21.63;;
36799;SDS011;22752;51.960;5.886;2023-06-22T14:09:51;26.50;;;22.77;;
36799;SDS011;22752;51.960;5.886;2023-06-22T14:12:16;33.10;;;27.20;;
36799;SDS011;22752;51.960;5.886;2023-06-22T14:14:45;26.63;;;23.75;;
36799;SDS011;22752;51.960;5.886;2023-06-22T14:17:10;26.30;;;23.45;;
36799;SDS011;22752;51.960;5.886;2023-06-22T14:19:36;26.85;;;24.00;;
36799;SDS011;22752;51.960;5.886;2023-06-22T14:22:02;29.40;;;23.48;;
36799;SDS011;22752;51.960;5.886;2023-06-22T14:24:28;23.77;;;21.27;;
36799;SDS011;22752;51.960;5.886;2023-06-22T14:26:54;26.80;;;23.65;;
36799;SDS011;22752;51.960;5.886;2023-06-22T14:29:20;25.30;;;22.23;;
36799;SDS011;22752;51.960;5.886;2023-06-22T14:31:47;25.58;;;22.88;;
36799;SDS011;22752;51.960;5.886;2023-06-22T14:34:14;25.13;;;22.42;;
36799;SDS011;22752;51.960;5.886;2023-06-22T14:36:40;25.15;;;21.92;;
36799;SDS011;22752;51.960;5.886;2023-06-22T14:39:06;27.27;;;24.02;;
36799;SDS011;22752;51.960;5.886;2023-06-22T14:41:31;27.52;;;23.15;;